Time;durP1;ratioP1;P1;durP2;ratioP2;P2;SDS_P1;SDS_P2;PMS_P1;PMS_P2;Temp;Humidity;BMP_temperature;BMP_pressure;BME280_temperature;BME280_humidity;BME280_pressure;Samples;Min_cycle;Max_cycle;Signal;HPM_P1;HPM_P2
2022/08/18 00:02:07;;;;;;;;;;;21.00;99.90;;;;;;5077853;28;19944;-86
2022/08/18 00:04:35;;;;;;;;;;;21.00;99.90;;;;;;5077811;28;20271;-85
2022/08/18 00:07:00;;;;;;;;;;;21.00;99.90;;;;;;5095770;28;19908;-85
2022/08/18 00:09:26;;;;;;;;;;;21.00;99.90;;;;;;5077603;28;19908;-86
2022/08/18 00:11:51;;;;;;;;;;;21.00;99.90;;;;;;5077775;28;19908;-85
2022/08/18 00:14:18;;;;;;;;;;;20.90;99.90;;;;;;5095634;28;19974;-85
2022/08/18 00:16:44;;;;;;;;;;;21.00;99.90;;;;;;5077242;28;19908;-85
2022/08/18 00:19:09;;;;;;;;;;;21.00;99.90;;;;;;5077312;28;20007;-86
2022/08/18 00:21:35;;;;;;;;;;;21.00;99.90;;;;;;5077537;28;19908;-85
2022/08/18 00:24:00;;;;;;;;;;;21.00;99.90;;;;;;5077410;28;19908;-86
2022/08/18 00:26:26;;;;;;;;;;;20.90;99.90;;;;;;5076658;28;19908;-86
2022/08/18 00:28:51;;;;;;;;;;;20.90;99.90;;;;;;5077181;28;20397;-85
2022/08/18 00:31:17;;;;;;;;;;;20.90;99.90;;;;;;5077355;28;19908;-85
2022/08/18 00:33:42;;;;;;;;;;;20.90;99.90;;;;;;5095105;28;19916;-85
2022/08/18 00:36:09;;;;;;;;;;;20.90;99.90;;;;;;5095046;28;19919;-86
2022/08/18 00:38:34;;;;;;;;;;;20.90;99.90;;;;;;5076667;28;19923;-85
2022/08/18 00:41:00;;;;;;;;;;;20.90;99.90;;;;;;5097852;22;19924;-82
2022/08/18 00:43:41;;;;;;;;;;;20.90;99.90;;;;;;5048539;28;19979;-80
2022/08/18 00:46:08;;;;;;;;;;;20.90;99.90;;;;;;5048417;28;19932;-79
2022/08/18 00:48:33;;;;;;;;;;;20.90;99.90;;;;;;5051967;28;19916;-80
2022/08/18 00:51:02;;;;;;;;;;;20.80;99.90;;;;;;5050143;28;19909;-80
2022/08/18 00:53:34;;;;;;;;;;;20.80;99.90;;;;;;5055518;28;19967;-80
2022/08/18 00:56:03;;;;;;;;;;;20.80;99.90;;;;;;5054777;28;19916;-80
2022/08/18 00:58:34;;;;;;;;;;;20.80;99.90;;;;;;5044772;28;19995;-80
2022/08/18 01:01:02;;;;;;;;;;;20.80;99.90;;;;;;5034957;28;19920;-80
2022/08/18 01:03:29;;;;;;;;;;;20.80;99.90;;;;;;5035182;28;19909;-80
2022/08/18 01:05:58;;;;;;;;;;;20.80;99.90;;;;;;5034729;28;20372;-80
2022/08/18 01:08:25;;;;;;;;;;;20.70;99.90;;;;;;5034679;28;19971;-79
2022/08/18 01:10:50;;;;;;;;;;;20.70;99.90;;;;;;5034246;28;19955;-79
2022/08/18 01:13:16;;;;;;;;;;;20.60;99.90;;;;;;5034486;28;19913;-80
2022/08/18 01:15:42;;;;;;;;;;;20.60;99.90;;;;;;5033871;28;19909;-80
2022/08/18 01:24:02;;;;;;;;;;;20.50;99.90;;;;;;5035517;28;19920;-79
2022/08/18 01:26:29;;;;;;;;;;;20.40;99.90;;;;;;5033396;28;20432;-79
2022/08/18 01:28:54;;;;;;;;;;;20.40;99.90;;;;;;5033439;28;20012;-79
2022/08/18 01:31:36;;;;;;;;;;;20.40;99.90;;;;;;5033426;28;19940;-79
2022/08/18 01:34:03;;;;;;;;;;;20.40;99.90;;;;;;5033425;28;19909;-79
2022/08/18 01:36:29;;;;;;;;;;;20.30;99.90;;;;;;5032871;28;20296;-79
2022/08/18 01:38:55;;;;;;;;;;;20.30;99.90;;;;;;5033161;28;19920;-79
2022/08/18 01:41:21;;;;;;;;;;;20.30;99.90;;;;;;5032965;28;19917;-79
2022/08/18 01:43:47;;;;;;;;;;;20.20;99.90;;;;;;5033057;28;19917;-80
2022/08/18 01:46:17;;;;;;;;;;;20.20;99.90;;;;;;5032057;28;19915;-79
2022/08/18 01:48:42;;;;;;;;;;;20.20;99.90;;;;;;5032703;28;19909;-79
2022/08/18 01:51:09;;;;;;;;;;;20.20;99.90;;;;;;5033676;28;19916;-79
2022/08/18 01:53:35;;;;;;;;;;;20.10;99.90;;;;;;5032920;28;19916;-79
2022/08/18 01:56:04;;;;;;;;;;;20.10;99.90;;;;;;5032018;28;20007;-79
2022/08/18 01:58:30;;;;;;;;;;;20.10;99.90;;;;;;5032095;28;19909;-79
2022/08/18 02:00:58;;;;;;;;;;;20.00;99.90;;;;;;5032206;28;19955;-79
2022/08/18 02:03:25;;;;;;;;;;;20.00;99.90;;;;;;5031762;28;20115;-79
2022/08/18 02:05:54;;;;;;;;;;;20.00;99.90;;;;;;5031792;28;19909;-79
2022/08/18 02:08:21;;;;;;;;;;;20.00;99.90;;;;;;5031886;28;20368;-79
2022/08/18 02:10:46;;;;;;;;;;;20.00;99.90;;;;;;5031803;28;19945;-79
2022/08/18 02:13:12;;;;;;;;;;;20.00;99.90;;;;;;5031800;28;19948;-79
2022/08/18 02:15:37;;;;;;;;;;;20.00;99.90;;;;;;5031488;28;19909;-79
2022/08/18 02:18:03;;;;;;;;;;;20.00;99.90;;;;;;5031748;28;19910;-79
2022/08/18 02:20:29;;;;;;;;;;;20.00;99.90;;;;;;5031454;28;19910;-79
2022/08/18 02:22:57;;;;;;;;;;;20.00;99.90;;;;;;5031805;28;19920;-79
2022/08/18 02:25:23;;;;;;;;;;;20.00;99.90;;;;;;5031592;28;19909;-79
2022/08/18 02:27:48;;;;;;;;;;;20.00;99.90;;;;;;5031504;28;19909;-79
2022/08/18 02:30:15;;;;;;;;;;;20.00;99.90;;;;;;5031639;28;19916;-79
2022/08/18 02:32:41;;;;;;;;;;;20.00;99.90;;;;;;5039230;28;19913;-80
2022/08/18 02:35:07;;;;;;;;;;;19.90;99.90;;;;;;5038151;28;19913;-79
2022/08/18 02:37:33;;;;;;;;;;;19.90;99.90;;;;;;5037789;28;19909;-80
2022/08/18 02:39:59;;;;;;;;;;;19.90;99.90;;;;;;5037180;28;20398;-79
2022/08/18 02:42:24;;;;;;;;;;;19.80;99.90;;;;;;5037079;28;19980;-79
2022/08/18 02:44:50;;;;;;;;;;;19.80;99.90;;;;;;5037082;28;19928;-80
2022/08/18 02:47:19;;;;;;;;;;;19.80;99.90;;;;;;5036547;28;19936;-80
2022/08/18 02:49:45;;;;;;;;;;;19.80;99.90;;;;;;5036237;28;19913;-79
2022/08/18 02:52:11;;;;;;;;;;;19.80;99.90;;;;;;5036380;28;19909;-79
2022/08/18 02:54:37;;;;;;;;;;;19.80;99.90;;;;;;5036541;28;20376;-79
2022/08/18 02:57:10;;;;;;;;;;;19.80;99.90;;;;;;5035358;28;19917;-80
2022/08/18 02:59:37;;;;;;;;;;;19.80;99.90;;;;;;5035760;28;19916;-79
2022/08/18 03:02:04;;;;;;;;;;;19.80;99.90;;;;;;5035399;28;19972;-79
2022/08/18 03:04:30;;;;;;;;;;;19.80;99.90;;;;;;5034938;28;20335;-79
2022/08/18 03:06:57;;;;;;;;;;;19.80;99.90;;;;;;5035174;28;19913;-79
2022/08/18 03:09:22;;;;;;;;;;;19.80;99.90;;;;;;5034249;28;19909;-79
2022/08/18 03:11:48;;;;;;;;;;;19.80;99.90;;;;;;5035005;28;20431;-79
2022/08/18 03:14:15;;;;;;;;;;;19.90;99.90;;;;;;5033807;28;20127;-79
2022/08/18 03:16:42;;;;;;;;;;;20.00;99.90;;;;;;5033688;28;19992;-79
2022/08/18 03:19:07;;;;;;;;;;;20.00;99.90;;;;;;5032676;28;19920;-79
2022/08/18 03:21:36;;;;;;;;;;;20.10;99.90;;;;;;5033288;28;19999;-79
2022/08/18 03:24:03;;;;;;;;;;;20.10;99.90;;;;;;5033217;28;20108;-79
2022/08/18 03:26:29;;;;;;;;;;;20.10;99.90;;;;;;5033017;28;19909;-79
2022/08/18 03:28:55;;;;;;;;;;;20.20;99.90;;;;;;5032820;28;20376;-79
2022/08/18 03:31:22;;;;;;;;;;;20.30;99.90;;;;;;5033644;28;19936;-79
2022/08/18 03:33:48;;;;;;;;;;;20.30;99.90;;;;;;5033022;28;19960;-79
2022/08/18 03:36:17;;;;;;;;;;;20.30;99.90;;;;;;5033060;28;19909;-79
2022/08/18 03:38:43;;;;;;;;;;;20.30;99.90;;;;;;5033040;28;20156;-79
2022/08/18 03:41:10;;;;;;;;;;;20.30;99.90;;;;;;5032608;28;20011;-79
2022/08/18 03:43:36;;;;;;;;;;;20.30;99.90;;;;;;5033130;28;19913;-79
2022/08/18 03:46:03;;;;;;;;;;;20.30;99.90;;;;;;5032313;28;20035;-79
2022/08/18 03:48:30;;;;;;;;;;;20.30;99.90;;;;;;5032391;28;19916;-79
2022/08/18 03:51:01;;;;;;;;;;;20.30;99.90;;;;;;5032414;28;19913;-79
2022/08/18 03:53:27;;;;;;;;;;;20.20;99.90;;;;;;5033048;28;19909;-79
2022/08/18 03:55:53;;;;;;;;;;;20.20;99.90;;;;;;5032455;28;19909;-79
2022/08/18 03:58:18;;;;;;;;;;;20.40;99.90;;;;;;5033384;28;19910;-79
2022/08/18 04:00:44;;;;;;;;;;;20.40;99.90;;;;;;5032799;28;20428;-79
2022/08/18 04:03:10;;;;;;;;;;;20.40;99.90;;;;;;5032943;28;19910;-79
2022/08/18 04:05:38;;;;;;;;;;;20.50;99.90;;;;;;5032701;28;19909;-79
2022/08/18 04:08:05;;;;;;;;;;;20.50;99.90;;;;;;5032571;28;19909;-79
2022/08/18 04:10:31;;;;;;;;;;;20.60;99.90;;;;;;5035661;28;19909;-79
2022/08/18 04:12:57;;;;;;;;;;;20.60;99.90;;;;;;5036734;28;19915;-80
2022/08/18 04:15:23;;;;;;;;;;;20.60;99.90;;;;;;5036202;28;19910;-79
2022/08/18 04:17:48;;;;;;;;;;;20.60;99.90;;;;;;5035945;28;19944;-79
2022/08/18 04:20:15;;;;;;;;;;;20.70;99.90;;;;;;5036395;28;19932;-79
2022/08/18 04:22:41;;;;;;;;;;;20.70;99.90;;;;;;5035977;28;19909;-79
2022/08/18 04:25:10;;;;;;;;;;;20.70;99.90;;;;;;5036037;28;20342;-79
2022/08/18 04:27:38;;;;;;;;;;;20.70;99.90;;;;;;5036843;28;19947;-79
2022/08/18 04:30:10;;;;;;;;;;;20.80;99.90;;;;;;5036806;28;19909;-79
2022/08/18 04:32:35;;;;;;;;;;;20.80;99.90;;;;;;5036189;28;19913;-79
2022/08/18 04:35:01;;;;;;;;;;;20.90;99.90;;;;;;5036214;28;19910;-79
2022/08/18 04:37:29;;;;;;;;;;;20.90;99.90;;;;;;5035703;28;19909;-79
2022/08/18 04:39:54;;;;;;;;;;;20.90;99.90;;;;;;5035533;28;20296;-79
2022/08/18 04:42:20;;;;;;;;;;;21.00;99.90;;;;;;5035607;28;19910;-79
2022/08/18 04:44:45;;;;;;;;;;;20.90;99.90;;;;;;5035241;28;19920;-79
2022/08/18 04:47:12;;;;;;;;;;;20.90;99.90;;;;;;5034846;28;20027;-79
2022/08/18 04:49:37;;;;;;;;;;;21.00;99.90;;;;;;5035104;28;20003;-79
2022/08/18 04:54:47;;;;;;;;;;;20.90;99.90;;;;;;5036494;28;19920;-79
2022/08/18 04:57:14;;;;;;;;;;;20.90;99.90;;;;;;5035308;28;19909;-79
2022/08/18 04:59:42;;;;;;;;;;;20.80;99.90;;;;;;5035237;28;19909;-79
2022/08/18 05:02:08;;;;;;;;;;;20.90;99.90;;;;;;5035189;28;20299;-79
2022/08/18 05:04:36;;;;;;;;;;;20.90;99.90;;;;;;5034981;28;19935;-79
2022/08/18 05:07:02;;;;;;;;;;;21.00;99.90;;;;;;5034810;28;20412;-79
2022/08/18 05:09:28;;;;;;;;;;;20.90;99.90;;;;;;5034759;28;19967;-80
2022/08/18 05:11:54;;;;;;;;;;;21.00;99.90;;;;;;5035333;28;19909;-79
2022/08/18 05:14:20;;;;;;;;;;;21.00;99.90;;;;;;5040577;28;19910;-80
2022/08/18 05:16:45;;;;;;;;;;;21.00;99.90;;;;;;5039847;28;19920;-80
2022/08/18 05:19:11;;;;;;;;;;;21.10;99.90;;;;;;5040327;28;19909;-80
2022/08/18 05:21:39;;;;;;;;;;;21.10;99.90;;;;;;5039476;28;19913;-80
2022/08/18 05:24:06;;;;;;;;;;;21.00;99.90;;;;;;5039765;28;20339;-79
2022/08/18 05:26:31;;;;;;;;;;;20.90;99.90;;;;;;5038558;28;19909;-80
2022/08/18 05:28:57;;;;;;;;;;;21.00;99.90;;;;;;5038947;28;20012;-80
2022/08/18 05:31:24;;;;;;;;;;;21.00;99.90;;;;;;5038693;28;19909;-80
2022/08/18 05:33:54;;;;;;;;;;;20.90;99.90;;;;;;5021547;28;21928;-80
2022/08/18 05:36:23;;;;;;;;;;;20.90;99.90;;;;;;5035057;28;19916;-77
2022/08/18 05:38:51;;;;;;;;;;;20.90;99.90;;;;;;5033765;28;19910;-77
2022/08/18 05:41:28;;;;;;;;;;;20.90;99.90;;;;;;5033764;28;20373;-77
2022/08/18 05:43:55;;;;;;;;;;;21.00;99.90;;;;;;5033968;28;20262;-77
2022/08/18 05:46:25;;;;;;;;;;;20.80;99.90;;;;;;5033001;28;19916;-76
2022/08/18 05:48:50;;;;;;;;;;;20.80;99.90;;;;;;5033575;28;19916;-77
2022/08/18 05:51:19;;;;;;;;;;;20.90;99.90;;;;;;5034023;28;20438;-78
2022/08/18 05:57:04;;;;;;;;;;;21.00;99.90;;;;;;5035350;28;19955;-77
2022/08/18 05:59:25;;;;;;;;;;;21.00;99.90;;;;;;5032562;28;19909;-77
2022/08/18 06:01:55;;;;;;;;;;;21.00;99.90;;;;;;5033749;28;19909;-76
2022/08/18 06:04:23;;;;;;;;;;;21.00;99.90;;;;;;5034084;28;19913;-77
2022/08/18 06:06:51;;;;;;;;;;;21.00;99.90;;;;;;5032699;28;19909;-77
2022/08/18 06:09:20;;;;;;;;;;;21.00;99.90;;;;;;5033081;28;19913;-77
2022/08/18 06:11:46;;;;;;;;;;;21.00;99.90;;;;;;5034858;28;20318;-78
2022/08/18 06:14:12;;;;;;;;;;;21.00;99.90;;;;;;5053077;28;20027;-77
2022/08/18 06:16:37;;;;;;;;;;;21.00;99.90;;;;;;5052784;28;20279;-77
2022/08/18 06:19:33;;;;;;;;;;;21.20;99.90;;;;;;5053753;28;19915;-77
2022/08/18 06:21:58;;;;;;;;;;;21.20;99.90;;;;;;5053132;28;19952;-78
2022/08/18 06:24:30;;;;;;;;;;;21.40;99.90;;;;;;5053651;28;20342;-78
2022/08/18 06:27:06;;;;;;;;;;;21.40;99.90;;;;;;5053089;28;19998;-79
2022/08/18 06:29:41;;;;;;;;;;;21.30;99.90;;;;;;5053585;28;19967;-78
2022/08/18 06:32:29;;;;;;;;;;;21.30;99.90;;;;;;5052549;28;20368;-78
2022/08/18 06:34:57;;;;;;;;;;;21.40;99.90;;;;;;5053782;28;20596;-79
2022/08/18 06:38:37;;;;;;;;;;;21.30;99.90;;;;;;5052913;28;20356;-79
2022/08/18 06:40:21;;;;;;;;;;;21.20;99.90;;;;;;5054664;28;19917;-79
2022/08/18 06:42:47;;;;;;;;;;;21.20;99.90;;;;;;5079161;22;19939;-85
2022/08/18 06:45:17;;;;;;;;;;;21.20;99.90;;;;;;5072942;28;19916;-85
2022/08/18 06:47:43;;;;;;;;;;;21.30;99.90;;;;;;5054886;28;19915;-85
2022/08/18 06:50:31;;;;;;;;;;;21.30;99.90;;;;;;5071574;28;19915;-85
2022/08/18 06:52:58;;;;;;;;;;;21.30;99.90;;;;;;5068499;28;19909;-85
2022/08/18 06:55:33;;;;;;;;;;;21.30;99.90;;;;;;5071758;28;19927;-84
2022/08/18 06:58:00;;;;;;;;;;;21.30;99.90;;;;;;5072851;28;19916;-85
2022/08/18 07:00:28;;;;;;;;;;;21.20;99.90;;;;;;5071400;28;19909;-85
2022/08/18 07:03:06;;;;;;;;;;;21.20;99.90;;;;;;5071446;28;19960;-85
2022/08/18 07:05:33;;;;;;;;;;;21.30;99.90;;;;;;5071445;28;20390;-85
2022/08/18 07:07:59;;;;;;;;;;;21.40;99.90;;;;;;5071357;28;19915;-85
2022/08/18 07:10:24;;;;;;;;;;;21.40;99.90;;;;;;5072521;28;19908;-85
2022/08/18 07:12:50;;;;;;;;;;;21.50;99.90;;;;;;5071222;28;19958;-85
2022/08/18 07:15:21;;;;;;;;;;;21.60;99.90;;;;;;5071128;28;19908;-84
2022/08/18 07:17:47;;;;;;;;;;;21.60;99.90;;;;;;5071451;28;19974;-85
2022/08/18 07:20:13;;;;;;;;;;;21.70;99.90;;;;;;5071246;28;20116;-85
2022/08/18 07:22:58;;;;;;;;;;;21.70;99.90;;;;;;5071162;28;19909;-84
2022/08/18 07:25:26;;;;;;;;;;;21.70;99.90;;;;;;5071072;28;20368;-89
2022/08/18 07:27:54;;;;;;;;;;;21.80;99.90;;;;;;5069467;28;19912;-87
2022/08/18 07:30:23;;;;;;;;;;;21.70;99.90;;;;;;5070298;28;19909;-86
2022/08/18 07:33:08;;;;;;;;;;;21.70;99.90;;;;;;5071789;28;20291;-86
2022/08/18 07:35:40;;;;;;;;;;;21.80;99.90;;;;;;5072810;28;19912;-89
2022/08/18 07:38:10;;;;;;;;;;;21.70;99.90;;;;;;5071878;28;19913;-86
2022/08/18 07:40:38;;;;;;;;;;;21.80;99.90;;;;;;5072260;28;19915;-86
2022/08/18 07:43:18;;;;;;;;;;;21.80;99.90;;;;;;5069073;28;19921;-87
2022/08/18 07:45:45;;;;;;;;;;;21.70;99.90;;;;;;5069724;28;19917;-87
2022/08/18 07:48:12;;;;;;;;;;;21.70;99.90;;;;;;5072351;28;20383;-84
2022/08/18 07:50:41;;;;;;;;;;;21.80;99.90;;;;;;5073880;28;19986;-84
2022/08/18 07:53:11;;;;;;;;;;;21.80;99.90;;;;;;5074469;28;19913;-83
2022/08/18 07:55:38;;;;;;;;;;;21.80;99.90;;;;;;5061194;28;19915;-83
2022/08/18 07:58:03;;;;;;;;;;;21.80;99.90;;;;;;5061272;28;19912;-83
2022/08/18 08:00:38;;;;;;;;;;;21.80;99.90;;;;;;5072541;28;19959;-83
2022/08/18 08:03:13;;;;;;;;;;;21.80;99.90;;;;;;5055817;28;19915;-84
2022/08/18 08:05:47;;;;;;;;;;;22.00;99.90;;;;;;5071219;28;19915;-84
2022/08/18 08:08:16;;;;;;;;;;;22.00;99.90;;;;;;5071020;28;19952;-83
2022/08/18 08:10:48;;;;;;;;;;;22.00;99.90;;;;;;5070996;28;19909;-83
2022/08/18 08:13:14;;;;;;;;;;;22.00;99.90;;;;;;5072732;28;19913;-83
2022/08/18 08:15:40;;;;;;;;;;;22.10;99.90;;;;;;5055107;28;19939;-83
2022/08/18 08:18:25;;;;;;;;;;;22.20;99.90;;;;;;5070529;28;20418;-84
2022/08/18 08:20:52;;;;;;;;;;;22.20;99.90;;;;;;5070875;28;19909;-84
2022/08/18 08:23:27;;;;;;;;;;;22.20;99.90;;;;;;5070665;28;20390;-83
2022/08/18 08:25:59;;;;;;;;;;;22.20;99.90;;;;;;5055010;28;19913;-83
2022/08/18 08:28:36;;;;;;;;;;;22.20;99.90;;;;;;5055004;28;20000;-84
2022/08/18 08:31:05;;;;;;;;;;;22.30;99.90;;;;;;5071226;28;19924;-83
2022/08/18 08:33:34;;;;;;;;;;;22.20;99.90;;;;;;5070698;28;20337;-83
2022/08/18 08:36:05;;;;;;;;;;;22.10;99.90;;;;;;5055016;28;19995;-83
2022/08/18 08:38:40;;;;;;;;;;;22.00;99.90;;;;;;5070223;28;19916;-83
2022/08/18 08:41:08;;;;;;;;;;;22.00;99.90;;;;;;5054837;28;19953;-83
2022/08/18 08:43:41;;;;;;;;;;;22.10;99.90;;;;;;5054682;28;19960;-83
2022/08/18 08:46:12;;;;;;;;;;;22.10;99.90;;;;;;5070089;28;19917;-84
2022/08/18 08:48:43;;;;;;;;;;;22.10;99.90;;;;;;5071277;28;19905;-83
2022/08/18 08:51:30;;;;;;;;;;;22.10;99.90;;;;;;5059237;28;19909;-83
2022/08/18 08:54:02;;;;;;;;;;;22.10;99.90;;;;;;5054681;28;19909;-88
2022/08/18 08:56:35;;;;;;;;;;;22.10;99.90;;;;;;5053014;28;20287;-86
2022/08/18 08:59:04;;;;;;;;;;;22.20;99.90;;;;;;5056945;28;19909;-85
2022/08/18 09:01:39;;;;;;;;;;;22.20;99.90;;;;;;5053743;28;19992;-85
2022/08/18 09:04:43;;;;;;;;;;;22.20;99.90;;;;;;5054026;28;19913;-86
2022/08/18 09:07:31;;;;;;;;;;;22.20;99.90;;;;;;5035130;28;19916;-86
2022/08/18 09:09:56;;;;;;;;;;;22.40;99.90;;;;;;5052001;28;19909;-86
2022/08/18 09:12:37;;;;;;;;;;;22.40;99.90;;;;;;5044942;28;20002;-87
2022/08/18 09:15:11;;;;;;;;;;;22.50;99.90;;;;;;5054486;28;19916;-87
2022/08/18 09:17:56;;;;;;;;;;;22.50;99.90;;;;;;5052631;28;19909;-87
2022/08/18 09:20:40;;;;;;;;;;;22.50;99.90;;;;;;5053126;28;20444;-85
2022/08/18 09:23:09;;;;;;;;;;;22.50;99.90;;;;;;5053072;28;19913;-88
2022/08/18 09:25:40;;;;;;;;;;;22.50;99.90;;;;;;5052631;28;19995;-87
2022/08/18 09:28:06;;;;;;;;;;;22.70;99.90;;;;;;5052874;28;19919;-86
2022/08/18 09:30:55;;;;;;;;;;;22.80;99.90;;;;;;5052980;28;20380;-86
2022/08/18 09:33:39;;;;;;;;;;;23.00;99.90;;;;;;5053666;28;20361;-86
2022/08/18 09:36:23;;;;;;;;;;;23.20;99.90;;;;;;5052367;28;19909;-87
2022/08/18 09:41:44;;;;;;;;;;;23.70;99.90;;;;;;5053607;28;19947;-86
2022/08/18 09:44:14;;;;;;;;;;;23.90;99.90;;;;;;5053790;28;19913;-86
2022/08/18 09:46:42;;;;;;;;;;;24.10;99.90;;;;;;5052312;28;20628;-87
2022/08/18 09:49:26;;;;;;;;;;;24.30;99.90;;;;;;5052923;28;19954;-88
2022/08/18 09:51:56;;;;;;;;;;;24.40;99.90;;;;;;5053791;28;19909;-87
2022/08/18 09:54:23;;;;;;;;;;;24.70;99.90;;;;;;5052017;28;19909;-86
2022/08/18 09:56:48;;;;;;;;;;;25.20;99.90;;;;;;5052268;28;19909;-86
2022/08/18 09:59:29;;;;;;;;;;;25.90;99.90;;;;;;5053225;28;19916;-85
2022/08/18 10:01:55;;;;;;;;;;;26.40;99.90;;;;;;5052522;28;20356;-87
2022/08/18 10:04:28;;;;;;;;;;;27.80;99.90;;;;;;5053180;28;19920;-87
2022/08/18 10:06:54;;;;;;;;;;;28.80;99.90;;;;;;5068420;28;19917;-89
2022/08/18 10:09:20;;;;;;;;;;;29.00;99.90;;;;;;5072711;28;19908;-90
2022/08/18 10:11:52;;;;;;;;;;;28.60;99.90;;;;;;5073217;28;20264;-88
2022/08/18 10:14:56;;;;;;;;;;;28.10;99.90;;;;;;5073429;28;19909;-87
2022/08/18 10:17:41;;;;;;;;;;;27.70;99.90;;;;;;4994292;28;20488;-86
2022/08/18 10:20:18;;;;;;;;;;;27.10;99.90;;;;;;4990389;28;19917;-87
2022/08/18 10:22:46;;;;;;;;;;;26.80;99.90;;;;;;5043454;28;19908;-88
2022/08/18 10:25:13;;;;;;;;;;;26.60;99.90;;;;;;5072166;28;20408;-88
2022/08/18 10:27:43;;;;;;;;;;;26.40;99.90;;;;;;5072873;28;19908;-87
2022/08/18 10:30:27;;;;;;;;;;;26.50;99.90;;;;;;5071621;28;19912;-87
2022/08/18 10:32:53;;;;;;;;;;;26.50;99.90;;;;;;5073467;28;20422;-86
2022/08/18 10:35:33;;;;;;;;;;;26.60;99.90;;;;;;5071757;28;19916;-88
2022/08/18 10:38:01;;;;;;;;;;;26.90;99.90;;;;;;5071621;28;19909;-87
2022/08/18 10:40:26;;;;;;;;;;;27.10;99.90;;;;;;5071754;28;20014;-87
2022/08/18 10:42:55;;;;;;;;;;;27.20;99.90;;;;;;5072037;28;19916;-87
2022/08/18 10:45:20;;;;;;;;;;;27.30;99.90;;;;;;5073716;28;19939;-86
2022/08/18 10:48:04;;;;;;;;;;;27.50;99.90;;;;;;5075616;28;19908;-84
2022/08/18 10:50:35;;;;;;;;;;;27.60;99.90;;;;;;5072990;28;19970;-84
2022/08/18 10:53:00;;;;;;;;;;;27.90;99.90;;;;;;5072520;28;19909;-85
2022/08/18 10:55:29;;;;;;;;;;;28.00;99.90;;;;;;5072366;28;19920;-84
2022/08/18 10:57:54;;;;;;;;;;;28.10;99.90;;;;;;5073001;28;20001;-85
2022/08/18 11:00:21;;;;;;;;;;;27.90;99.90;;;;;;5072963;28;19944;-85
2022/08/18 11:03:07;;;;;;;;;;;27.70;99.90;;;;;;5071756;28;19915;-84
2022/08/18 11:05:33;;;;;;;;;;;27.60;99.90;;;;;;5071686;28;19909;-88
2022/08/18 11:08:07;;;;;;;;;;;27.70;99.90;;;;;;5071330;28;19916;-84
2022/08/18 11:10:47;;;;;;;;;;;27.50;99.90;;;;;;5068598;28;20359;-84
2022/08/18 11:13:30;;;;;;;;;;;27.40;99.90;;;;;;5071657;28;19912;-84
2022/08/18 11:15:55;;;;;;;;;;;27.20;99.90;;;;;;5078486;28;19909;-86
2022/08/18 11:18:40;;;;;;;;;;;27.00;99.90;;;;;;5083113;28;20051;-86
2022/08/18 11:21:30;;;;;;;;;;;26.90;99.90;;;;;;5078924;28;20382;-87
2022/08/18 11:24:01;;;;;;;;;;;27.00;99.90;;;;;;5077467;28;19909;-89
2022/08/18 11:26:31;;;;;;;;;;;26.90;99.90;;;;;;5076983;28;19962;-88
2022/08/18 11:28:57;;;;;;;;;;;27.10;99.90;;;;;;5075870;28;19909;-87
2022/08/18 11:31:23;;;;;;;;;;;27.40;99.90;;;;;;5076214;28;19909;-91
2022/08/18 11:33:49;;;;;;;;;;;27.90;99.90;;;;;;5076076;28;19918;-89
2022/08/18 11:36:15;;;;;;;;;;;28.00;99.90;;;;;;5078851;28;20354;-86
2022/08/18 11:38:53;;;;;;;;;;;27.90;99.90;;;;;;5075618;28;19995;-88
2022/08/18 11:41:24;;;;;;;;;;;27.90;99.90;;;;;;5075150;28;19999;-88
2022/08/18 11:43:54;;;;;;;;;;;27.90;99.90;;;;;;5075145;28;19916;-87
2022/08/18 11:46:19;;;;;;;;;;;27.80;99.90;;;;;;5076404;28;19909;-89
2022/08/18 11:48:47;;;;;;;;;;;27.50;99.90;;;;;;5075396;28;19908;-87
2022/08/18 11:51:16;;;;;;;;;;;27.50;99.90;;;;;;5075522;28;19919;-86
2022/08/18 11:53:48;;;;;;;;;;;27.70;99.90;;;;;;5075322;28;19952;-86
2022/08/18 11:56:13;;;;;;;;;;;27.60;99.90;;;;;;5074219;28;19912;-87
2022/08/18 11:58:42;;;;;;;;;;;27.50;99.90;;;;;;5076087;28;19915;-88
2022/08/18 12:01:08;;;;;;;;;;;27.50;99.90;;;;;;5074473;28;19908;-86
2022/08/18 12:03:44;;;;;;;;;;;27.60;99.90;;;;;;5074643;28;20010;-86
2022/08/18 12:06:18;;;;;;;;;;;27.50;99.90;;;;;;5074787;28;19916;-87
2022/08/18 12:08:49;;;;;;;;;;;27.40;99.90;;;;;;5074456;28;19998;-87
2022/08/18 12:11:16;;;;;;;;;;;27.30;99.90;;;;;;5077051;28;20326;-85
2022/08/18 12:13:47;;;;;;;;;;;27.50;99.90;;;;;;5081497;28;19913;-84
2022/08/18 12:16:14;;;;;;;;;;;27.70;99.90;;;;;;5073627;28;19917;-86
2022/08/18 12:18:39;;;;;;;;;;;27.60;99.90;;;;;;5068919;28;19919;-87
2022/08/18 12:21:05;;;;;;;;;;;27.70;99.90;;;;;;5086064;28;19909;-90
2022/08/18 12:23:34;;;;;;;;;;;27.90;99.90;;;;;;5054839;28;19909;-89
2022/08/18 12:26:00;;;;;;;;;;;28.10;99.90;;;;;;5054835;28;19909;-89
2022/08/18 12:28:26;;;;;;;;;;;28.20;99.90;;;;;;5054718;28;20442;-89
2022/08/18 12:30:52;;;;;;;;;;;28.20;99.90;;;;;;5054221;28;20018;-89
2022/08/18 12:33:17;;;;;;;;;;;28.30;99.90;;;;;;5055656;28;20031;-87
2022/08/18 12:35:43;;;;;;;;;;;28.10;99.90;;;;;;5054715;28;20015;-88
2022/08/18 12:38:09;;;;;;;;;;;28.00;99.90;;;;;;5054703;28;19913;-87
2022/08/18 12:40:35;;;;;;;;;;;27.90;99.90;;;;;;5071993;28;19913;-89
2022/08/18 12:43:01;;;;;;;;;;;27.70;99.90;;;;;;5062917;28;19917;-89
2022/08/18 12:45:26;;;;;;;;;;;27.80;99.90;;;;;;5081312;23;19936;-76
2022/08/18 12:47:53;;;;;;;;;;;27.80;99.90;;;;;;5050855;28;19908;-76
2022/08/18 12:50:18;;;;;;;;;;;27.80;99.90;;;;;;5054580;28;19913;-76
2022/08/18 12:52:44;;;;;;;;;;;27.90;99.90;;;;;;5068919;28;19916;-76
2022/08/18 12:55:10;;;;;;;;;;;28.00;99.90;;;;;;5070452;28;19917;-76
2022/08/18 12:57:35;;;;;;;;;;;28.10;99.90;;;;;;5074916;28;19915;-77
2022/08/18 13:00:01;;;;;;;;;;;28.30;99.90;;;;;;5075194;28;19908;-76
2022/08/18 13:02:27;;;;;;;;;;;28.40;99.90;;;;;;5064528;28;20301;-77
2022/08/18 13:04:53;;;;;;;;;;;28.60;99.90;;;;;;5071673;28;19909;-76
2022/08/18 13:07:18;;;;;;;;;;;28.80;99.90;;;;;;5063757;28;19908;-75
2022/08/18 13:09:44;;;;;;;;;;;28.90;99.90;;;;;;5057406;28;19909;-76
2022/08/18 13:12:10;;;;;;;;;;;28.80;99.90;;;;;;5058313;28;19909;-77
2022/08/18 13:14:37;;;;;;;;;;;28.80;99.90;;;;;;5064956;28;19966;-76
2022/08/18 13:17:03;;;;;;;;;;;28.90;99.90;;;;;;5073595;28;19915;-78
2022/08/18 13:19:28;;;;;;;;;;;28.90;99.90;;;;;;5075804;28;20364;-78
2022/08/18 13:21:54;;;;;;;;;;;28.70;99.90;;;;;;5073731;28;19909;-77
2022/08/18 13:24:19;;;;;;;;;;;28.60;99.90;;;;;;5069618;28;19908;-76
2022/08/18 13:26:46;;;;;;;;;;;28.60;99.90;;;;;;5051956;28;19963;-75
2022/08/18 13:29:16;;;;;;;;;;;28.60;99.90;;;;;;5052410;28;19913;-76
2022/08/18 13:31:42;;;;;;;;;;;28.80;99.90;;;;;;5052447;28;19908;-75
2022/08/18 13:34:07;;;;;;;;;;;28.70;99.90;;;;;;5052141;28;20284;-76
2022/08/18 13:36:45;;;;;;;;;;;28.60;99.90;;;;;;5052068;28;19916;-76
2022/08/18 13:39:12;;;;;;;;;;;28.60;99.90;;;;;;5052045;28;19915;-75
2022/08/18 13:41:41;;;;;;;;;;;28.70;99.90;;;;;;5051440;28;20276;-76
2022/08/18 13:44:06;;;;;;;;;;;28.70;99.90;;;;;;5052074;28;19917;-76
2022/08/18 13:46:32;;;;;;;;;;;28.90;99.90;;;;;;5051686;28;19917;-76
2022/08/18 13:49:01;;;;;;;;;;;29.00;99.90;;;;;;5052006;28;19954;-76
2022/08/18 13:51:27;;;;;;;;;;;29.20;99.90;;;;;;5051863;28;20386;-76
2022/08/18 13:53:52;;;;;;;;;;;29.10;99.90;;;;;;5059011;28;19928;-75
2022/08/18 13:56:19;;;;;;;;;;;28.90;99.90;;;;;;5070931;28;19908;-75
2022/08/18 13:58:44;;;;;;;;;;;29.00;99.90;;;;;;5066713;28;19909;-76
2022/08/18 14:01:10;;;;;;;;;;;29.20;99.90;;;;;;5071647;28;19908;-76
2022/08/18 14:03:36;;;;;;;;;;;29.40;99.90;;;;;;5081138;28;20340;-77
2022/08/18 14:06:02;;;;;;;;;;;29.50;99.90;;;;;;5084528;28;19936;-77
2022/08/18 14:08:29;;;;;;;;;;;29.70;99.90;;;;;;5075155;28;19919;-76
2022/08/18 14:10:56;;;;;;;;;;;29.80;99.90;;;;;;5074743;28;20415;-77
2022/08/18 14:13:22;;;;;;;;;;;30.10;99.90;;;;;;5073027;28;19908;-77
2022/08/18 14:15:49;;;;;;;;;;;30.30;99.90;;;;;;5072462;28;19982;-77
2022/08/18 14:18:15;;;;;;;;;;;30.40;99.90;;;;;;5075350;28;19930;-76
2022/08/18 14:28:53;;;;;;;;;;;30.20;99.90;;;;;;5076429;28;19915;-76
2022/08/18 14:31:19;;;;;;;;;;;30.00;99.90;;;;;;5072226;28;20003;-76
2022/08/18 14:33:45;;;;;;;;;;;30.20;99.90;;;;;;5071882;28;19954;-76
2022/08/18 14:36:11;;;;;;;;;;;30.20;99.90;;;;;;5072157;28;20363;-77
2022/08/18 14:38:37;;;;;;;;;;;30.30;99.90;;;;;;5073249;28;19995;-78
2022/08/18 14:41:04;;;;;;;;;;;30.70;99.90;;;;;;5073387;28;19951;-76
2022/08/18 14:43:30;;;;;;;;;;;31.10;99.90;;;;;;5073390;28;19931;-76
2022/08/18 14:45:56;;;;;;;;;;;31.30;98.30;;;;;;5075558;28;19917;-76
2022/08/18 14:48:26;;;;;;;;;;;31.60;98.20;;;;;;5072845;28;19962;-76
2022/08/18 14:50:54;;;;;;;;;;;32.00;97.30;;;;;;5072406;28;19909;-77